createdAt,value
2016-05-18T14:52:54.833Z,1003.23
2016-05-18T14:53:54.820Z,1003.23
2016-05-18T14:54:54.807Z,1003.21
2016-05-18T14:55:54.794Z,1003.18
2016-05-18T14:56:54.782Z,1003.17
2016-05-18T14:57:54.768Z,1003.19
2016-05-18T14:58:54.771Z,1003.15
2016-05-18T14:59:59.070Z,1003.17
2016-05-18T15:00:54.745Z,1003.16
2016-05-18T15:01:54.731Z,1003.11
2016-05-18T15:02:54.734Z,1003.13
2016-05-18T15:03:54.519Z,1003.12
2016-05-18T15:04:54.709Z,1003.08
2016-05-18T15:05:54.712Z,1003.04
2016-05-18T15:06:54.495Z,1003.08
2016-05-18T15:07:54.686Z,1003.08
2016-05-18T15:08:54.703Z,1003.02
2016-05-18T15:09:59.379Z,1002.98
2016-05-18T15:10:54.678Z,1003
2016-05-18T15:11:54.462Z,1002.96
2016-05-18T15:12:54.668Z,1002.99
2016-05-18T15:13:54.670Z,1002.97
2016-05-18T15:14:59.782Z,1003.01
2016-05-18T15:15:54.441Z,1003
2016-05-18T15:16:54.648Z,1003
2016-05-18T15:17:54.650Z,1002.91
2016-05-18T15:18:54.638Z,1002.95
2016-05-18T15:19:54.640Z,1002.91
2016-05-18T15:20:54.643Z,1002.91
2016-05-18T15:21:54.630Z,1002.89
2016-05-18T15:22:54.616Z,1002.86
2016-05-18T15:23:54.744Z,1002.85
2016-05-18T15:24:59.154Z,1002.83
2016-05-18T15:25:54.422Z,1002.83
2016-05-18T15:26:54.409Z,1002.85
2016-05-18T15:27:54.599Z,1002.87
2016-05-18T15:28:54.415Z,1002.85
2016-05-18T15:29:54.604Z,1002.89
2016-05-18T15:30:54.607Z,1002.92
2016-05-18T15:31:54.390Z,1002.87
2016-05-18T15:32:54.393Z,1002.91
2016-05-18T15:33:54.396Z,1002.86
2016-05-18T15:34:54.587Z,1002.89
2016-05-18T15:35:54.386Z,1002.84
2016-05-18T15:36:54.592Z,1002.8
2016-05-18T15:37:54.578Z,1002.81
2016-05-18T15:38:54.738Z,1002.81
2016-05-18T15:39:54.584Z,1002.77
2016-05-18T15:40:54.587Z,1002.78
2016-05-18T15:41:54.574Z,1002.8
2016-05-18T15:42:54.373Z,1002.8
2016-05-18T15:43:54.580Z,1002.78
2016-05-18T15:44:57.848Z,1002.77
2016-05-18T15:45:54.569Z,1002.78
2016-05-18T15:46:54.369Z,1002.76
2016-05-18T15:47:54.371Z,1002.76
2016-05-18T15:48:54.561Z,1002.7
2016-05-18T15:49:54.564Z,1002.77
2016-05-18T15:50:54.567Z,1002.75
2016-05-18T15:51:54.569Z,1002.73
2016-05-18T15:52:54.557Z,1002.72
2016-05-18T15:53:54.357Z,1002.72
2016-05-18T15:54:54.562Z,1002.72
2016-05-18T15:55:54.363Z,1002.73
2016-05-18T15:56:54.349Z,1002.71
2016-05-18T15:57:54.555Z,1002.74
2016-05-18T15:58:54.354Z,1002.72
2016-05-18T15:59:54.341Z,1002.7
2016-05-18T16:00:54.546Z,1002.65
2016-05-18T16:01:54.550Z,1002.68
2016-05-18T16:02:54.552Z,1002.65
2016-05-18T16:03:54.555Z,1002.65
2016-05-18T16:04:54.542Z,1002.66
2016-05-18T16:05:54.545Z,1002.66
2016-05-18T16:06:54.548Z,1002.64
2016-05-18T16:07:54.331Z,1002.64
2016-05-18T16:08:54.725Z,1002.63
2016-05-18T16:09:58.587Z,1002.61
2016-05-18T16:10:54.340Z,1002.63
2016-05-18T16:11:54.545Z,1002.63
2016-05-18T16:12:54.533Z,1002.61
2016-05-18T16:13:54.332Z,1002.61
2016-05-18T16:14:54.538Z,1002.59
2016-05-18T16:15:54.541Z,1002.64
2016-05-18T16:16:54.340Z,1002.58
2016-05-18T16:17:54.530Z,1002.64
2016-05-18T16:18:54.330Z,1002.62
2016-05-18T16:19:54.333Z,1002.59
2016-05-18T16:20:54.539Z,1002.61
2016-05-18T16:21:54.338Z,1002.65
2016-05-18T16:22:54.341Z,1002.72
2016-05-18T16:23:54.530Z,1002.77
2016-05-18T16:25:00.159Z,1002.71
2016-05-18T16:25:54.333Z,1002.79
2016-05-18T16:26:54.335Z,1002.74
2016-05-18T16:27:54.541Z,1002.79
2016-05-18T16:28:54.326Z,1002.77
2016-05-18T16:29:59.188Z,1002.73
2016-05-18T16:30:54.535Z,1002.76
2016-05-18T16:31:54.538Z,1002.71
2016-05-18T16:32:54.321Z,1002.67
2016-05-18T16:33:54.340Z,1002.71
2016-05-18T16:34:54.529Z,1002.74
2016-05-18T16:35:54.532Z,1002.65
2016-05-18T16:36:54.551Z,1002.63
2016-05-18T16:37:54.334Z,1002.63
2016-05-18T16:38:54.321Z,1002.61
2016-05-18T16:39:54.527Z,1002.58
2016-05-18T16:40:54.327Z,1002.54
2016-05-18T16:41:54.532Z,1002.53
2016-05-18T16:42:54.332Z,1002.51
2016-05-18T16:43:54.538Z,1002.52
2016-05-18T16:44:57.463Z,1002.48
2016-05-18T16:45:54.527Z,1002.5
2016-05-18T16:46:54.530Z,1002.5
2016-05-18T16:47:54.533Z,1002.46
2016-05-18T16:48:54.317Z,1002.49
2016-05-18T16:49:54.319Z,1002.48
2016-05-18T16:50:54.525Z,1002.48
2016-05-18T16:51:54.325Z,1002.46
2016-05-18T16:52:54.328Z,1002.49
2016-05-18T16:53:54.518Z,1002.52
2016-05-18T16:54:54.521Z,1002.52
2016-05-18T16:55:54.320Z,1002.52
2016-05-18T16:56:54.323Z,1002.54
2016-05-18T16:57:54.529Z,1002.55
2016-05-18T16:58:54.313Z,1002.51
